Time;durP1;ratioP1;P1;durP2;ratioP2;P2;SDS_P1;SDS_P2;PMS_P1;PMS_P2;Temp;Humidity;BMP_temperature;BMP_pressure;BME280_temperature;BME280_humidity;BME280_pressure;Samples;Min_cycle;Max_cycle;Signal;HPM_P1;HPM_P2
2023/05/28 00:02:22;;;;;;;;;;;;;;;20.85;69.49;99331.97;5094035;28;19920;-42
2023/05/28 00:04:47;;;;;;;;;;;;;;;21.04;68.21;99334.03;5093254;28;20006;-42
2023/05/28 00:07:13;;;;;;;;;;;;;;;21.09;68.38;99340.19;5094285;28;19920;-42
2023/05/28 00:09:38;;;;;;;;;;;;;;;21.07;68.37;99342.34;5093705;28;19919;-42
2023/05/28 00:12:05;;;;;;;;;;;;;;;21.17;67.47;99346.06;5094224;28;20363;-42
2023/05/28 00:14:30;;;;;;;;;;;;;;;21.18;67.86;99350.41;5094194;28;19919;-42
2023/05/28 00:16:56;;;;;;;;;;;;;;;21.11;67.01;99345.31;5093480;28;19912;-42
2023/05/28 00:19:22;;;;;;;;;;;;;;;20.93;67.74;99346.00;5093874;28;19912;-42
2023/05/28 00:21:47;;;;;;;;;;;;;;;21.16;66.88;99336.34;5093936;28;20422;-42
2023/05/28 00:24:12;;;;;;;;;;;;;;;21.27;66.50;99343.28;5093753;28;19947;-42
2023/05/28 00:26:38;;;;;;;;;;;;;;;21.26;67.02;99334.34;5093692;28;20010;-42
2023/05/28 00:29:03;;;;;;;;;;;;;;;20.98;67.25;99335.13;5093517;28;19920;-42
2023/05/28 00:31:28;;;;;;;;;;;;;;;20.98;67.82;99330.53;5093520;28;19977;-42
2023/05/28 00:33:53;;;;;;;;;;;;;;;20.99;67.09;99336.75;5093555;28;19912;-42
2023/05/28 00:36:19;;;;;;;;;;;;;;;21.13;67.00;99336.91;5093533;28;20003;-42
2023/05/28 00:38:44;;;;;;;;;;;;;;;21.13;66.29;99340.41;5093165;28;20386;-42
2023/05/28 00:41:09;;;;;;;;;;;;;;;21.18;66.86;99332.25;5093430;28;19969;-42
2023/05/28 00:43:35;;;;;;;;;;;;;;;21.20;66.70;99332.78;5093557;28;19918;-42
2023/05/28 00:46:01;;;;;;;;;;;;;;;21.01;66.34;99329.97;5093384;28;20295;-42
2023/05/28 00:48:28;;;;;;;;;;;;;;;21.01;65.67;99332.66;5093255;28;20006;-42
2023/05/28 00:50:53;;;;;;;;;;;;;;;20.61;67.47;99331.06;5092923;28;19912;-42
2023/05/28 00:53:19;;;;;;;;;;;;;;;20.94;67.21;99331.38;5092685;28;19918;-42
2023/05/28 00:55:44;;;;;;;;;;;;;;;21.00;66.90;99314.84;5092942;28;19959;-42
2023/05/28 00:58:10;;;;;;;;;;;;;;;21.12;65.91;99319.09;5093144;28;19913;-42
2023/05/28 01:00:36;;;;;;;;;;;;;;;21.17;65.04;99316.31;5093041;28;20367;-42
2023/05/28 01:03:02;;;;;;;;;;;;;;;21.21;65.34;99315.47;5092800;28;19998;-42
2023/05/28 01:05:27;;;;;;;;;;;;;;;21.13;65.50;99317.97;5092871;28;19985;-42
2023/05/28 01:07:53;;;;;;;;;;;;;;;21.27;64.90;99308.13;5092817;28;19912;-42
2023/05/28 01:10:18;;;;;;;;;;;;;;;21.36;64.42;99311.81;5092695;28;19912;-42
2023/05/28 01:12:44;;;;;;;;;;;;;;;21.06;65.32;99312.91;5092462;28;19935;-43
2023/05/28 01:15:09;;;;;;;;;;;;;;;21.09;64.76;99307.75;5092766;28;19923;-42
2023/05/28 01:17:35;;;;;;;;;;;;;;;21.10;64.18;99303.13;5092634;28;19919;-42
2023/05/28 01:20:10;;;;;;;;;;;;;;;21.15;64.21;99304.97;5092726;28;20236;-42
2023/05/28 01:22:39;;;;;;;;;;;;;;;21.21;63.75;99303.81;5092218;28;19935;-42
2023/05/28 01:25:09;;;;;;;;;;;;;;;20.98;64.78;99295.38;5092196;28;19993;-41
2023/05/28 01:27:37;;;;;;;;;;;;;;;20.50;66.04;99289.72;5092158;28;19912;-41
2023/05/28 01:30:04;;;;;;;;;;;;;;;20.77;64.77;99296.63;5092023;28;20364;-41
2023/05/28 01:32:29;;;;;;;;;;;;;;;20.89;63.85;99289.75;5092167;28;20002;-41
2023/05/28 01:34:54;;;;;;;;;;;;;;;20.74;64.75;99281.78;5092171;28;20010;-41
2023/05/28 01:37:20;;;;;;;;;;;;;;;20.83;64.36;99279.28;5091974;28;19912;-42
2023/05/28 01:39:46;;;;;;;;;;;;;;;20.52;65.25;99295.66;5091963;28;19912;-41
2023/05/28 01:42:12;;;;;;;;;;;;;;;20.31;66.55;99298.50;5092144;28;19943;-41
2023/05/28 01:44:38;;;;;;;;;;;;;;;20.46;65.77;99299.50;5091797;28;20229;-41
2023/05/28 01:47:04;;;;;;;;;;;;;;;20.16;66.41;99295.06;5091922;28;19966;-41
2023/05/28 01:49:30;;;;;;;;;;;;;;;19.58;67.28;99300.91;5091742;28;20002;-41
2023/05/28 01:51:55;;;;;;;;;;;;;;;19.74;66.45;99305.19;5091717;28;19970;-41
2023/05/28 01:54:21;;;;;;;;;;;;;;;19.61;66.57;99297.66;5091296;28;19912;-41
2023/05/28 01:56:46;;;;;;;;;;;;;;;19.75;66.01;99296.03;5091586;28;20324;-41
2023/05/28 01:59:12;;;;;;;;;;;;;;;20.03;64.76;99301.88;5091741;28;19919;-41
2023/05/28 02:01:37;;;;;;;;;;;;;;;20.31;64.08;99292.28;5091799;28;19919;-41
2023/05/28 02:04:03;;;;;;;;;;;;;;;20.29;63.41;99291.75;5091527;28;20372;-41
2023/05/28 02:06:34;;;;;;;;;;;;;;;20.16;63.66;99295.06;5091914;28;20287;-41
2023/05/28 02:08:59;;;;;;;;;;;;;;;19.97;64.03;99286.78;5091801;28;19912;-41
2023/05/28 02:11:25;;;;;;;;;;;;;;;20.16;63.70;99289.66;5091744;28;20342;-41
2023/05/28 02:13:52;;;;;;;;;;;;;;;19.80;64.05;99281.69;5089951;28;19912;-41
2023/05/28 02:16:17;;;;;;;;;;;;;;;19.98;63.54;99285.69;5091260;28;20307;-41
2023/05/28 02:18:43;;;;;;;;;;;;;;;20.15;63.66;99271.84;5091624;28;19912;-41
2023/05/28 02:21:08;;;;;;;;;;;;;;;20.08;63.66;99275.63;5091567;28;19912;-41
2023/05/28 02:23:34;;;;;;;;;;;;;;;19.70;65.54;99277.13;5091334;28;20276;-41
2023/05/28 02:26:00;;;;;;;;;;;;;;;19.34;66.64;99267.25;5091325;28;19954;-41
2023/05/28 02:28:26;;;;;;;;;;;;;;;19.62;65.86;99270.41;5090585;28;20278;-41
2023/05/28 02:30:51;;;;;;;;;;;;;;;19.77;65.05;99272.28;5091331;28;19916;-41
2023/05/28 02:33:16;;;;;;;;;;;;;;;19.58;66.39;99279.31;5091075;28;19923;-41
2023/05/28 02:35:41;;;;;;;;;;;;;;;19.34;66.14;99282.59;5091077;28;20428;-42
2023/05/28 02:38:07;;;;;;;;;;;;;;;19.36;66.56;99283.13;5091249;28;19928;-42
2023/05/28 02:40:33;;;;;;;;;;;;;;;19.16;66.75;99275.09;5091106;28;19919;-41
2023/05/28 02:42:58;;;;;;;;;;;;;;;19.27;66.45;99284.78;5090920;28;20010;-42
2023/05/28 02:45:23;;;;;;;;;;;;;;;19.52;66.15;99290.13;5091142;28;19916;-42
2023/05/28 02:47:49;;;;;;;;;;;;;;;19.44;65.34;99292.56;5091039;28;19935;-42
2023/05/28 02:50:14;;;;;;;;;;;;;;;19.35;66.20;99300.41;5090783;28;19912;-41
2023/05/28 02:52:39;;;;;;;;;;;;;;;19.67;64.74;99300.06;5090880;28;19912;-42
2023/05/28 02:55:05;;;;;;;;;;;;;;;19.75;64.26;99304.13;5090966;28;19920;-41
2023/05/28 02:57:30;;;;;;;;;;;;;;;19.84;64.17;99313.28;5090753;28;20360;-42
2023/05/28 02:59:55;;;;;;;;;;;;;;;19.81;63.63;99313.81;5091021;28;19974;-42
2023/05/28 03:02:21;;;;;;;;;;;;;;;19.71;65.36;99320.03;5090873;28;19969;-42
2023/05/28 03:04:46;;;;;;;;;;;;;;;19.85;64.24;99333.78;5090858;28;19977;-42
2023/05/28 03:07:11;;;;;;;;;;;;;;;19.76;65.06;99332.72;5090720;28;20419;-42
2023/05/28 03:09:37;;;;;;;;;;;;;;;20.24;65.16;99333.13;5090866;28;20042;-42
2023/05/28 03:12:02;;;;;;;;;;;;;;;20.48;63.65;99329.75;5090726;28;19918;-42
2023/05/28 03:14:27;;;;;;;;;;;;;;;20.64;63.55;99333.22;5090810;28;19922;-43
2023/05/28 03:16:53;;;;;;;;;;;;;;;20.83;63.07;99334.16;5091152;28;20232;-43
2023/05/28 03:19:18;;;;;;;;;;;;;;;20.99;63.28;99329.44;5091026;28;19951;-43
2023/05/28 03:21:43;;;;;;;;;;;;;;;21.11;63.97;99330.97;5089720;28;20268;-44
2023/05/28 03:24:08;;;;;;;;;;;;;;;21.13;64.07;99332.28;5090849;28;19912;-42
2023/05/28 03:26:34;;;;;;;;;;;;;;;21.08;63.78;99330.44;5090530;28;20007;-41
2023/05/28 03:28:59;;;;;;;;;;;;;;;21.21;64.53;99333.59;5090745;28;20014;-41
2023/05/28 03:31:28;;;;;;;;;;;;;;;21.22;63.93;99340.63;5090941;28;20010;-41
2023/05/28 03:33:54;;;;;;;;;;;;;;;21.21;62.92;99339.00;5090838;28;19974;-43
2023/05/28 03:36:19;;;;;;;;;;;;;;;21.27;62.96;99335.97;5090664;28;19916;-43
2023/05/28 03:38:44;;;;;;;;;;;;;;;21.35;64.81;99336.47;5090788;28;19916;-43
2023/05/28 03:41:10;;;;;;;;;;;;;;;21.23;66.26;99339.53;5093571;28;19958;-42
2023/05/28 03:43:36;;;;;;;;;;;;;;;21.26;64.69;99337.06;5094362;28;20272;-42
2023/05/28 03:46:02;;;;;;;;;;;;;;;21.17;64.83;99344.19;5094356;28;20318;-42
2023/05/28 03:48:27;;;;;;;;;;;;;;;21.20;65.14;99338.19;5094148;28;20006;-42
2023/05/28 03:50:52;;;;;;;;;;;;;;;21.18;65.53;99336.88;5094060;28;19912;-42
2023/05/28 03:53:17;;;;;;;;;;;;;;;21.19;65.75;99331.19;5093811;28;19935;-43
2023/05/28 03:55:43;;;;;;;;;;;;;;;21.21;65.38;99341.69;5094396;28;19988;-42
2023/05/28 03:58:09;;;;;;;;;;;;;;;20.74;66.67;99348.56;5094068;28;20382;-42
2023/05/28 04:00:34;;;;;;;;;;;;;;;20.88;66.64;99354.94;5094175;28;19919;-42
2023/05/28 04:03:00;;;;;;;;;;;;;;;20.98;65.57;99363.00;5093831;28;19981;-42
2023/05/28 04:05:25;;;;;;;;;;;;;;;20.59;66.01;99358.34;5094278;28;19908;-42
2023/05/28 04:07:50;;;;;;;;;;;;;;;20.74;66.16;99357.47;5094250;28;19913;-42
2023/05/28 04:10:16;;;;;;;;;;;;;;;20.80;66.38;99359.06;5093852;28;20284;-42
2023/05/28 04:12:41;;;;;;;;;;;;;;;20.82;67.85;99367.69;5093805;28;19998;-42
2023/05/28 04:15:07;;;;;;;;;;;;;;;20.79;67.79;99367.44;5093470;28;19920;-41
2023/05/28 04:17:32;;;;;;;;;;;;;;;20.83;67.77;99371.22;5093914;28;20002;-41
2023/05/28 04:19:58;;;;;;;;;;;;;;;20.90;68.06;99366.28;5094275;28;20352;-41
2023/05/28 04:22:23;;;;;;;;;;;;;;;21.05;67.82;99379.69;5093656;28;20000;-41
2023/05/28 04:24:51;;;;;;;;;;;;;;;20.99;67.80;99380.03;5093471;28;20352;-42
2023/05/28 04:27:16;;;;;;;;;;;;;;;20.99;68.36;99380.81;5093970;28;19912;-42
2023/05/28 04:29:42;;;;;;;;;;;;;;;20.73;69.90;99384.78;5093347;28;20382;-43
2023/05/28 04:32:09;;;;;;;;;;;;;;;20.44;70.70;99388.16;5093406;28;19920;-41
2023/05/28 04:34:34;;;;;;;;;;;;;;;20.21;71.49;99387.69;5093452;28;19977;-41
2023/05/28 04:36:59;;;;;;;;;;;;;;;20.10;71.98;99384.22;5093283;28;20326;-42
2023/05/28 04:39:26;;;;;;;;;;;;;;;19.64;74.39;99391.59;5093016;28;20492;-41
2023/05/28 04:41:53;;;;;;;;;;;;;;;19.94;72.99;99396.16;5093681;28;19916;-41
2023/05/28 04:44:18;;;;;;;;;;;;;;;20.01;72.13;99387.75;5093260;28;19916;-42
2023/05/28 04:46:45;;;;;;;;;;;;;;;20.13;71.74;99398.28;5092933;28;19916;-42
2023/05/28 04:49:11;;;;;;;;;;;;;;;20.01;72.94;99398.56;5092604;28;19916;-42
2023/05/28 04:51:37;;;;;;;;;;;;;;;20.11;72.90;99401.25;5092469;28;19916;-43
2023/05/28 04:54:03;;;;;;;;;;;;;;;20.31;72.47;99403.88;5092935;28;19916;-43
2023/05/28 04:56:28;;;;;;;;;;;;;;;20.29;71.44;99394.41;5091614;28;19916;-43
2023/05/28 04:58:54;;;;;;;;;;;;;;;20.35;72.46;99404.09;5093017;28;19993;-42
2023/05/28 05:01:19;;;;;;;;;;;;;;;20.47;71.75;99401.91;5092700;28;19954;-42
2023/05/28 05:03:45;;;;;;;;;;;;;;;20.57;71.61;99408.38;5092582;28;20007;-42
2023/05/28 05:06:11;;;;;;;;;;;;;;;20.54;72.26;99401.59;5092810;28;19912;-43
2023/05/28 05:08:36;;;;;;;;;;;;;;;20.70;72.10;99407.78;5092762;28;19913;-41
2023/05/28 05:11:01;;;;;;;;;;;;;;;20.55;71.93;99405.94;5092596;28;19912;-42
2023/05/28 05:13:27;;;;;;;;;;;;;;;20.50;72.48;99409.47;5092608;28;19923;-41
2023/05/28 05:15:52;;;;;;;;;;;;;;;20.73;71.08;99412.63;5092165;28;19921;-42
2023/05/28 05:18:17;;;;;;;;;;;;;;;20.72;71.23;99412.91;5091586;28;19927;-41
2023/05/28 05:20:43;;;;;;;;;;;;;;;20.79;71.21;99411.53;5092427;28;20300;-41
2023/05/28 05:23:08;;;;;;;;;;;;;;;20.96;70.49;99408.47;5091848;28;19916;-41
2023/05/28 05:25:33;;;;;;;;;;;;;;;21.11;70.11;99423.75;5097837;28;19923;-41
2023/05/28 05:27:58;;;;;;;;;;;;;;;20.68;71.48;99418.88;5110543;28;19915;-41
2023/05/28 05:30:24;;;;;;;;;;;;;;;20.60;71.28;99419.47;5090424;28;19924;-41
2023/05/28 05:32:49;;;;;;;;;;;;;;;20.65;70.87;99427.53;5092346;28;19912;-42
2023/05/28 05:35:15;;;;;;;;;;;;;;;20.34;71.65;99432.22;5092324;28;19940;-43
2023/05/28 05:37:41;;;;;;;;;;;;;;;20.26;73.55;99432.81;5092565;28;19912;-42
2023/05/28 05:40:08;;;;;;;;;;;;;;;20.16;72.81;99435.53;5092280;28;19976;-42
2023/05/28 05:42:34;;;;;;;;;;;;;;;19.96;73.28;99441.78;5091426;28;19912;-43
2023/05/28 05:44:59;;;;;;;;;;;;;;;20.22;73.41;99442.53;5092020;28;19966;-42
2023/05/28 05:47:25;;;;;;;;;;;;;;;20.13;73.66;99445.00;5092403;28;20072;-42
2023/05/28 05:49:53;;;;;;;;;;;;;;;19.94;74.25;99438.56;5092040;28;19920;-42
2023/05/28 05:52:18;;;;;;;;;;;;;;;19.49;76.22;99441.78;5092152;28;19916;-42
2023/05/28 05:54:43;;;;;;;;;;;;;;;19.54;76.70;99452.56;5091514;28;19912;-43
2023/05/28 05:57:09;;;;;;;;;;;;;;;19.90;75.83;99447.19;5092227;28;19912;-42
2023/05/28 05:59:34;;;;;;;;;;;;;;;19.96;75.93;99447.19;5091830;28;20413;-42
2023/05/28 06:02:00;;;;;;;;;;;;;;;19.89;76.42;99450.16;5091884;28;19912;-42
2023/05/28 06:04:31;;;;;;;;;;;;;;;19.94;75.28;99442.06;5091223;28;19990;-43
2023/05/28 06:06:57;;;;;;;;;;;;;;;19.66;77.16;99443.41;5092068;28;19928;-42
2023/05/28 06:09:23;;;;;;;;;;;;;;;19.60;77.12;99445.28;5091682;28;20273;-42
2023/05/28 06:11:48;;;;;;;;;;;;;;;19.85;76.99;99449.09;5091577;28;19966;-43
2023/05/28 06:14:13;;;;;;;;;;;;;;;20.03;76.50;99450.41;5091675;28;19943;-43
2023/05/28 06:16:39;;;;;;;;;;;;;;;20.09;76.12;99447.44;5091663;28;19939;-43
2023/05/28 06:19:04;;;;;;;;;;;;;;;20.15;75.96;99447.44;5091925;28;20464;-44
2023/05/28 06:21:30;;;;;;;;;;;;;;;20.02;77.62;99446.09;5091686;28;19970;-42
2023/05/28 06:23:55;;;;;;;;;;;;;;;19.98;76.88;99445.03;5092059;28;20308;-43
2023/05/28 06:26:21;;;;;;;;;;;;;;;20.08;76.72;99447.69;5091645;28;19912;-43
2023/05/28 06:28:46;;;;;;;;;;;;;;;20.09;76.23;99452.81;5091321;28;19949;-44
2023/05/28 06:31:12;;;;;;;;;;;;;;;20.03;76.85;99450.41;5091178;28;19916;-43
2023/05/28 06:33:37;;;;;;;;;;;;;;;19.74;77.69;99445.56;5090950;28;19916;-41
2023/05/28 06:36:02;;;;;;;;;;;;;;;19.93;77.73;99445.81;5090362;28;19924;-43
2023/05/28 06:38:27;;;;;;;;;;;;;;;20.28;76.24;99449.56;5091107;28;19985;-40
2023/05/28 06:40:53;;;;;;;;;;;;;;;20.64;74.64;99442.16;5090852;28;20010;-42
2023/05/28 06:43:18;;;;;;;;;;;;;;;20.78;74.33;99438.84;5090682;28;19912;-43
2023/05/28 06:45:43;;;;;;;;;;;;;;;21.03;72.53;99438.69;5090788;28;19969;-42
2023/05/28 06:48:10;;;;;;;;;;;;;;;20.85;73.37;99442.06;5090867;28;20380;-42
2023/05/28 06:50:35;;;;;;;;;;;;;;;20.93;73.29;99443.38;5090853;28;19912;-42
2023/05/28 06:53:01;;;;;;;;;;;;;;;20.74;74.62;99446.69;5090797;28;20328;-42
2023/05/28 06:55:27;;;;;;;;;;;;;;;20.69;75.23;99450.25;5090750;28;20003;-42
2023/05/28 06:57:52;;;;;;;;;;;;;;;20.84;74.33;99445.81;5090806;28;20007;-42
2023/05/28 07:00:17;;;;;;;;;;;;;;;21.02;73.26;99447.91;5090531;28;19916;-42
2023/05/28 07:02:46;;;;;;;;;;;;;;;21.11;72.50;99450.00;5090429;28;19934;-42
2023/05/28 07:05:12;;;;;;;;;;;;;;;21.34;71.69;99454.72;5090471;28;20011;-41
2023/05/28 07:07:38;;;;;;;;;;;;;;;21.28;71.73;99450.44;5090383;28;19916;-42
2023/05/28 07:10:03;;;;;;;;;;;;;;;21.50;70.37;99457.34;5090240;28;19919;-42
2023/05/28 07:12:29;;;;;;;;;;;;;;;21.62;70.31;99449.66;5090173;28;19976;-42
2023/05/28 07:14:55;;;;;;;;;;;;;;;21.81;69.80;99450.56;5092815;28;19920;-43
2023/05/28 07:17:20;;;;;;;;;;;;;;;21.96;69.23;99449.63;5094935;28;19916;-45
2023/05/28 07:19:46;;;;;;;;;;;;;;;22.06;68.94;99449.50;5094303;28;19912;-41
2023/05/28 07:22:11;;;;;;;;;;;;;;;22.17;68.63;99447.50;5093911;28;19919;-42
2023/05/28 07:24:36;;;;;;;;;;;;;;;22.02;69.41;99445.75;5094258;28;19916;-43
2023/05/28 07:27:02;;;;;;;;;;;;;;;22.13;69.29;99443.75;5094459;28;19918;-43
2023/05/28 07:29:28;;;;;;;;;;;;;;;22.13;70.78;99440.25;5093929;28;20459;-44
2023/05/28 07:31:53;;;;;;;;;;;;;;;22.09;70.95;99434.59;5094210;28;19916;-42
2023/05/28 07:34:18;;;;;;;;;;;;;;;22.14;69.92;99434.56;5094114;28;20290;-44
2023/05/28 07:36:43;;;;;;;;;;;;;;;22.45;68.54;99442.38;5094097;28;19920;-43
2023/05/28 07:39:10;;;;;;;;;;;;;;;22.60;69.27;99441.38;5094458;28;19920;-43
2023/05/28 07:41:35;;;;;;;;;;;;;;;22.89;67.79;99446.69;5094134;28;19941;-44
2023/05/28 07:44:01;;;;;;;;;;;;;;;23.07;65.95;99453.22;5094164;28;19912;-43
2023/05/28 07:46:26;;;;;;;;;;;;;;;22.98;66.02;99460.38;5094188;28;19912;-43
2023/05/28 07:48:51;;;;;;;;;;;;;;;22.78;67.13;99461.47;5094338;28;19912;-47
2023/05/28 07:51:17;;;;;;;;;;;;;;;22.98;66.64;99458.50;5094245;28;20015;-47
2023/05/28 07:53:43;;;;;;;;;;;;;;;23.31;65.97;99466.72;5093929;28;20304;-45
2023/05/28 07:56:08;;;;;;;;;;;;;;;23.23;64.49;99460.06;5093458;28;20256;-47
2023/05/28 07:58:33;;;;;;;;;;;;;;;23.35;64.85;99451.47;5093740;28;19940;-43
2023/05/28 08:00:59;;;;;;;;;;;;;;;23.16;66.88;99447.97;5093669;28;19912;-46
2023/05/28 08:03:27;;;;;;;;;;;;;;;23.39;65.68;99452.47;5093328;28;19919;-44
2023/05/28 08:05:52;;;;;;;;;;;;;;;23.47;65.24;99451.00;5093339;28;19912;-45
2023/05/28 08:08:17;;;;;;;;;;;;;;;23.19;65.90;99448.19;5093258;28;20019;-44
2023/05/28 08:10:43;;;;;;;;;;;;;;;23.26;64.56;99453.22;5093207;28;19923;-44
2023/05/28 08:13:08;;;;;;;;;;;;;;;23.36;64.28;99438.69;5093059;28;20003;-42
2023/05/28 08:15:34;;;;;;;;;;;;;;;23.08;66.10;99443.19;5093071;28;19966;-42
2023/05/28 08:17:59;;;;;;;;;;;;;;;23.04;66.66;99442.97;5092800;28;20015;-44
2023/05/28 08:20:24;;;;;;;;;;;;;;;23.11;65.27;99448.81;5093025;28;19916;-43
2023/05/28 08:22:49;;;;;;;;;;;;;;;23.22;65.26;99444.06;5092831;28;19912;-42
2023/05/28 08:25:15;;;;;;;;;;;;;;;23.11;64.81;99439.88;5092228;28;19923;-42
2023/05/28 08:27:40;;;;;;;;;;;;;;;23.01;65.24;99438.91;5092897;28;19912;-42
2023/05/28 08:30:06;;;;;;;;;;;;;;;23.27;65.72;99435.03;5092961;28;19934;-41
2023/05/28 08:32:31;;;;;;;;;;;;;;;23.54;65.48;99435.13;5092825;28;20284;-41
2023/05/28 08:34:57;;;;;;;;;;;;;;;23.14;66.29;99440.09;5093206;28;20402;-41
2023/05/28 08:37:22;;;;;;;;;;;;;;;22.80;68.63;99438.38;5092784;28;20289;-41
2023/05/28 08:39:47;;;;;;;;;;;;;;;23.33;68.00;99434.66;5092530;28;19940;-40
2023/05/28 08:42:13;;;;;;;;;;;;;;;23.85;65.19;99434.63;5091801;28;19916;-41
2023/05/28 08:44:38;;;;;;;;;;;;;;;23.88;65.06;99435.97;5092651;28;19920;-42
2023/05/28 08:47:04;;;;;;;;;;;;;;;23.85;63.10;99414.81;5092220;28;19922;-41
2023/05/28 08:49:31;;;;;;;;;;;;;;;23.70;63.89;99424.00;5092448;28;19919;-41
2023/05/28 08:51:59;;;;;;;;;;;;;;;23.91;64.05;99422.59;5092555;28;19969;-41
2023/05/28 08:54:25;;;;;;;;;;;;;;;23.52;64.33;99433.84;5092465;28;19919;-41
2023/05/28 08:56:50;;;;;;;;;;;;;;;23.28;66.12;99426.59;5092599;28;19940;-40
2023/05/28 08:59:16;;;;;;;;;;;;;;;23.59;65.01;99426.13;5091208;28;19912;-40
2023/05/28 09:01:41;;;;;;;;;;;;;;;24.03;64.05;99423.97;5092117;28;19916;-40
2023/05/28 09:04:07;;;;;;;;;;;;;;;23.95;63.94;99422.78;5092133;28;19961;-41
2023/05/28 09:06:32;;;;;;;;;;;;;;;24.21;63.16;99423.09;5091930;28;20329;-41
2023/05/28 09:08:57;;;;;;;;;;;;;;;24.33;62.31;99425.31;5092021;28;19926;-41
2023/05/28 09:11:23;;;;;;;;;;;;;;;24.78;61.26;99422.78;5092009;28;19916;-41
2023/05/28 09:13:48;;;;;;;;;;;;;;;25.07;60.04;99425.09;5092005;28;19965;-41
2023/05/28 09:16:21;;;;;;;;;;;;;;;24.63;60.31;99417.66;5091188;28;19981;-41
2023/05/28 09:18:51;;;;;;;;;;;;;;;24.49;60.86;99420.38;5091151;28;19947;-41
2023/05/28 09:21:16;;;;;;;;;;;;;;;24.76;60.21;99420.34;5091031;28;19912;-41
2023/05/28 09:23:44;;;;;;;;;;;;;;;25.06;59.43;99414.53;5091983;28;19938;-40
2023/05/28 09:26:09;;;;;;;;;;;;;;;25.20;58.63;99411.75;5092074;28;19935;-41
2023/05/28 09:28:35;;;;;;;;;;;;;;;25.04;58.88;99416.78;5091886;28;19920;-39
2023/05/28 09:31:04;;;;;;;;;;;;;;;25.00;59.68;99418.47;5092037;28;19916;-41
2023/05/28 09:33:29;;;;;;;;;;;;;;;25.17;58.95;99416.72;5091692;28;19912;-40
2023/05/28 09:35:59;;;;;;;;;;;;;;;25.59;58.02;99411.09;5091712;28;19916;-40
2023/05/28 09:38:26;;;;;;;;;;;;;;;25.83;56.31;99410.72;5090306;28;19912;-40
2023/05/28 09:40:53;;;;;;;;;;;;;;;25.78;56.50;99413.63;5091492;28;20114;-41
2023/05/28 09:43:26;;;;;;;;;;;;;;;25.61;57.79;99408.03;5091524;28;19922;-41
2023/05/28 09:45:51;;;;;;;;;;;;;;;26.03;56.81;99408.63;5091249;28;20230;-41
2023/05/28 09:48:16;;;;;;;;;;;;;;;26.54;55.59;99415.38;5091542;28;20000;-41
2023/05/28 09:50:42;;;;;;;;;;;;;;;26.11;54.43;99413.31;5091611;28;19912;-41
2023/05/28 09:53:08;;;;;;;;;;;;;;;26.34;54.59;99401.19;5091544;28;19912;-41
2023/05/28 09:55:35;;;;;;;;;;;;;;;26.45;55.41;99401.69;5091251;28;19916;-41
2023/05/28 09:58:01;;;;;;;;;;;;;;;26.06;55.93;99406.06;5091089;28;19912;-40
2023/05/28 10:00:32;;;;;;;;;;;;;;;26.58;54.69;99396.41;5089845;28;20352;-41
2023/05/28 10:03:05;;;;;;;;;;;;;;;27.03;53.27;99393.44;5090976;28;19912;-41
2023/05/28 10:05:32;;;;;;;;;;;;;;;27.20;52.92;99393.41;5091198;28;20045;-40
2023/05/28 10:07:59;;;;;;;;;;;;;;;26.82;52.87;99396.00;5091054;28;19919;-39
2023/05/28 10:10:26;;;;;;;;;;;;;;;27.07;52.08;99386.19;5090871;28;19918;-40
2023/05/28 10:12:53;;;;;;;;;;;;;;;27.85;50.58;99388.81;5090682;28;20022;-40
2023/05/28 10:15:19;;;;;;;;;;;;;;;27.60;50.31;99379.53;5091019;28;19920;-40
2023/05/28 10:17:44;;;;;;;;;;;;;;;28.37;49.03;99379.56;5090668;28;19961;-40
2023/05/28 10:20:10;;;;;;;;;;;;;;;29.07;46.86;99381.78;5090701;28;19916;-40
2023/05/28 10:22:37;;;;;;;;;;;;;;;28.74;46.35;99373.56;5090499;28;19912;-40
2023/05/28 10:25:03;;;;;;;;;;;;;;;29.00;44.75;99376.09;5090372;28;19912;-39
2023/05/28 10:27:29;;;;;;;;;;;;;;;29.57;43.40;99367.16;5090869;28;19939;-41
2023/05/28 10:29:55;;;;;;;;;;;;;;;29.49;44.10;99359.00;5090608;28;20023;-40
2023/05/28 10:32:20;;;;;;;;;;;;;;;29.27;44.92;99361.03;5091394;28;20065;-41
2023/05/28 10:34:46;;;;;;;;;;;;;;;29.46;42.62;99344.06;5091737;28;19919;-42
2023/05/28 10:37:13;;;;;;;;;;;;;;;29.01;43.16;99342.06;5091894;28;19912;-40
2023/05/28 10:39:38;;;;;;;;;;;;;;;29.47;42.51;99334.69;5091207;28;19912;-39
2023/05/28 10:42:05;;;;;;;;;;;;;;;28.59;44.90;99344.84;5091315;28;20300;-42
2023/05/28 10:44:50;;;;;;;;;;;;;;;28.37;49.39;99351.38;5090994;28;19912;-41
2023/05/28 10:47:17;;;;;;;;;;;;;;;28.94;48.35;99339.06;5091246;28;19919;-40
2023/05/28 10:50:20;;;;;;;;;;;;;;;29.44;44.57;99333.44;5090757;28;19919;-41
2023/05/28 10:53:07;;;;;;;;;;;;;;;28.62;45.65;99330.50;5048220;28;19917;-40
2023/05/28 10:55:48;;;;;;;;;;;;;;;28.69;46.68;99335.41;5048150;28;20004;-41
2023/05/28 10:58:22;;;;;;;;;;;;;;;27.83;46.06;99333.63;5078538;28;19923;-40
2023/05/28 11:00:47;;;;;;;;;;;;;;;28.38;45.18;99336.59;5090901;28;19920;-41
2023/05/28 11:03:13;;;;;;;;;;;;;;;27.74;46.90;99353.94;5090922;28;20352;-41
2023/05/28 11:05:39;;;;;;;;;;;;;;;28.06;46.50;99347.06;5091139;28;19969;-41
2023/05/28 11:08:04;;;;;;;;;;;;;;;27.99;47.56;99346.81;5091112;28;19946;-41
2023/05/28 11:10:30;;;;;;;;;;;;;;;26.83;49.86;99359.41;5091270;28;20391;-41
2023/05/28 11:12:55;;;;;;;;;;;;;;;26.71;51.53;99354.56;5090971;28;20062;-43
2023/05/28 11:15:21;;;;;;;;;;;;;;;27.17;51.13;99352.28;5090828;28;19916;-45
2023/05/28 11:17:46;;;;;;;;;;;;;;;26.75;52.95;99349.28;5090996;28;19912;-42
2023/05/28 11:20:21;;;;;;;;;;;;;;;27.06;52.90;99351.84;5091386;28;20372;-43
2023/05/28 11:22:46;;;;;;;;;;;;;;;27.40;52.25;99366.59;5091218;28;20010;-42
2023/05/28 11:25:12;;;;;;;;;;;;;;;26.31;54.18;99355.47;5090960;28;19948;-41
2023/05/28 11:27:38;;;;;;;;;;;;;;;26.66;52.84;99360.19;5091038;28;19912;-41
2023/05/28 11:30:08;;;;;;;;;;;;;;;26.44;53.00;99355.63;5090568;28;20327;-41
2023/05/28 11:32:33;;;;;;;;;;;;;;;26.37;53.36;99350.66;5091231;28;19916;-42
2023/05/28 11:34:59;;;;;;;;;;;;;;;26.47;53.34;99341.38;5090750;28;19943;-42
2023/05/28 11:37:28;;;;;;;;;;;;;;;26.44;54.40;99344.72;5091081;28;20300;-41
2023/05/28 11:39:54;;;;;;;;;;;;;;;25.83;56.21;99328.97;5091078;28;19912;-42
2023/05/28 11:42:20;;;;;;;;;;;;;;;25.90;55.63;99332.06;5090862;28;19922;-44
2023/05/28 11:44:47;;;;;;;;;;;;;;;26.07;55.20;99336.78;5091072;28;19916;-43
2023/05/28 11:47:13;;;;;;;;;;;;;;;25.43;57.52;99330.88;5090805;28;19935;-42
2023/05/28 11:49:38;;;;;;;;;;;;;;;25.72;57.00;99336.66;5090780;28;20530;-42
2023/05/28 11:52:03;;;;;;;;;;;;;;;25.98;56.76;99337.88;5090733;28;19912;-42
2023/05/28 11:54:29;;;;;;;;;;;;;;;25.83;57.35;99331.69;5090937;28;19912;-45
2023/05/28 11:56:54;;;;;;;;;;;;;;;25.87;57.45;99335.41;5090744;28;19923;-43
2023/05/28 11:59:25;;;;;;;;;;;;;;;24.94;61.42;99333.41;5090910;28;20366;-42
2023/05/28 12:01:51;;;;;;;;;;;;;;;24.87;62.31;99333.88;5092943;28;19912;-43
2023/05/28 12:04:21;;;;;;;;;;;;;;;25.28;61.15;99343.78;5094329;28;20307;-43
2023/05/28 12:06:50;;;;;;;;;;;;;;;25.34;60.42;99342.53;5094626;28;19997;-44
2023/05/28 12:09:15;;;;;;;;;;;;;;;25.89;58.79;99346.00;5094298;28;19967;-41
2023/05/28 12:11:41;;;;;;;;;;;;;;;25.50;59.04;99347.59;5094094;28;20008;-41
2023/05/28 12:14:12;;;;;;;;;;;;;;;25.17;59.06;99345.13;5093400;28;19913;-42
2023/05/28 12:16:47;;;;;;;;;;;;;;;24.91;60.48;99356.63;5094067;28;20343;-43
2023/05/28 12:19:15;;;;;;;;;;;;;;;24.93;60.73;99359.03;5094305;28;20433;-43
2023/05/28 12:21:41;;;;;;;;;;;;;;;25.21;60.12;99358.91;5093869;28;19912;-42
2023/05/28 12:24:13;;;;;;;;;;;;;;;25.33;59.56;99359.19;5094147;28;19912;-42
2023/05/28 12:26:39;;;;;;;;;;;;;;;25.33;59.94;99360.00;5093211;28;19920;-43
2023/05/28 12:29:05;;;;;;;;;;;;;;;25.44;60.12;99357.81;5092567;28;19927;-40
2023/05/28 12:31:31;;;;;;;;;;;;;;;25.49;59.68;99357.69;5093166;28;19993;-42
2023/05/28 12:33:56;;;;;;;;;;;;;;;25.44;59.59;99359.75;5093715;28;20310;-40
2023/05/28 12:36:21;;;;;;;;;;;;;;;25.51;59.71;99363.63;5093415;28;19923;-42
2023/05/28 12:38:46;;;;;;;;;;;;;;;25.49;60.47;99356.88;5093464;28;20007;-41
2023/05/28 12:41:12;;;;;;;;;;;;;;;25.22;62.64;99355.09;5093435;28;19912;-41
2023/05/28 12:43:37;;;;;;;;;;;;;;;25.60;60.67;99344.59;5093658;28;19912;-42